sensor_id;sensor_type;location;lat;lon;timestamp;P1;durP1;ratioP1;P2;durP2;ratioP2
39864;SDS011;25538;48.392;9.976;2022-09-12T00:03:33;12.30;;;11.30;;
39864;SDS011;25538;48.392;9.976;2022-09-12T00:06:00;12.32;;;11.32;;
39864;SDS011;25538;48.392;9.976;2022-09-12T00:08:31;12.02;;;11.02;;
39864;SDS011;25538;48.392;9.976;2022-09-12T00:10:57;12.63;;;11.27;;
39864;SDS011;25538;48.392;9.976;2022-09-12T00:13:23;14.37;;;13.07;;
39864;SDS011;25538;48.392;9.976;2022-09-12T00:15:49;14.00;;;12.80;;
39864;SDS011;25538;48.392;9.976;2022-09-12T00:18:15;13.50;;;12.30;;
39864;SDS011;25538;48.392;9.976;2022-09-12T00:20:42;12.93;;;11.90;;
39864;SDS011;25538;48.392;9.976;2022-09-12T00:23:09;13.10;;;12.00;;
39864;SDS011;25538;48.392;9.976;2022-09-12T00:25:45;13.32;;;12.02;;
39864;SDS011;25538;48.392;9.976;2022-09-12T00:28:13;13.52;;;12.50;;
39864;SDS011;25538;48.392;9.976;2022-09-12T00:30:45;13.38;;;12.18;;
39864;SDS011;25538;48.392;9.976;2022-09-12T00:33:12;14.20;;;12.90;;
39864;SDS011;25538;48.392;9.976;2022-09-12T00:35:41;14.85;;;13.52;;
39864;SDS011;25538;48.392;9.976;2022-09-12T00:38:11;15.07;;;13.77;;
39864;SDS011;25538;48.392;9.976;2022-09-12T00:40:38;13.57;;;12.38;;
39864;SDS011;25538;48.392;9.976;2022-09-12T00:43:05;14.20;;;12.93;;
39864;SDS011;25538;48.392;9.976;2022-09-12T00:45:56;14.70;;;13.50;;
39864;SDS011;25538;48.392;9.976;2022-09-12T00:48:26;13.98;;;12.68;;
39864;SDS011;25538;48.392;9.976;2022-09-12T00:50:59;14.00;;;12.75;;
39864;SDS011;25538;48.392;9.976;2022-09-12T00:53:25;15.45;;;13.95;;
39864;SDS011;25538;48.392;9.976;2022-09-12T00:55:52;14.60;;;13.20;;
39864;SDS011;25538;48.392;9.976;2022-09-12T00:58:31;14.15;;;12.95;;
39864;SDS011;25538;48.392;9.976;2022-09-12T01:01:02;14.25;;;12.93;;
39864;SDS011;25538;48.392;9.976;2022-09-12T01:03:27;14.53;;;13.20;;
39864;SDS011;25538;48.392;9.976;2022-09-12T01:08:38;13.57;;;12.38;;
39864;SDS011;25538;48.392;9.976;2022-09-12T01:11:05;13.45;;;12.25;;
39864;SDS011;25538;48.392;9.976;2022-09-12T01:13:33;14.45;;;13.15;;
39864;SDS011;25538;48.392;9.976;2022-09-12T01:16:03;13.90;;;12.73;;
39864;SDS011;25538;48.392;9.976;2022-09-12T01:18:37;14.25;;;12.85;;
39864;SDS011;25538;48.392;9.976;2022-09-12T01:21:13;14.00;;;12.63;;
39864;SDS011;25538;48.392;9.976;2022-09-12T01:32:20;14.18;;;13.07;;
39864;SDS011;25538;48.392;9.976;2022-09-12T01:34:59;14.48;;;13.13;;
39864;SDS011;25538;48.392;9.976;2022-09-12T01:43:15;15.70;;;14.25;;
39864;SDS011;25538;48.392;9.976;2022-09-12T01:45:56;14.38;;;12.98;;
39864;SDS011;25538;48.392;9.976;2022-09-12T01:48:35;14.73;;;13.45;;
39864;SDS011;25538;48.392;9.976;2022-09-12T01:51:17;15.85;;;14.45;;
39864;SDS011;25538;48.392;9.976;2022-09-12T01:53:49;14.90;;;13.40;;
39864;SDS011;25538;48.392;9.976;2022-09-12T01:56:25;14.35;;;13.05;;
39864;SDS011;25538;48.392;9.976;2022-09-12T02:01:26;14.50;;;13.18;;
39864;SDS011;25538;48.392;9.976;2022-09-12T02:04:03;13.18;;;12.02;;
39864;SDS011;25538;48.392;9.976;2022-09-12T02:06:47;13.98;;;12.80;;
39864;SDS011;25538;48.392;9.976;2022-09-12T02:09:18;14.20;;;12.90;;
39864;SDS011;25538;48.392;9.976;2022-09-12T02:11:59;13.38;;;12.07;;
39864;SDS011;25538;48.392;9.976;2022-09-12T02:14:29;13.88;;;12.70;;
39864;SDS011;25538;48.392;9.976;2022-09-12T02:17:10;13.80;;;12.70;;
39864;SDS011;25538;48.392;9.976;2022-09-12T02:19:44;15.07;;;13.88;;
39864;SDS011;25538;48.392;9.976;2022-09-12T02:22:16;12.65;;;11.65;;
39864;SDS011;25538;48.392;9.976;2022-09-12T02:24:47;16.05;;;14.27;;
39864;SDS011;25538;48.392;9.976;2022-09-12T02:29:48;14.90;;;13.60;;
39864;SDS011;25538;48.392;9.976;2022-09-12T02:35:00;13.65;;;12.35;;
39864;SDS011;25538;48.392;9.976;2022-09-12T02:40:22;14.85;;;13.00;;
39864;SDS011;25538;48.392;9.976;2022-09-12T02:42:48;14.68;;;13.18;;
39864;SDS011;25538;48.392;9.976;2022-09-12T02:45:14;12.30;;;11.30;;
39864;SDS011;25538;48.392;9.976;2022-09-12T02:47:49;13.90;;;12.38;;
39864;SDS011;25538;48.392;9.976;2022-09-12T02:50:21;14.73;;;13.35;;
39864;SDS011;25538;48.392;9.976;2022-09-12T02:52:47;13.90;;;12.57;;
39864;SDS011;25538;48.392;9.976;2022-09-12T02:55:14;12.15;;;11.15;;
39864;SDS011;25538;48.392;9.976;2022-09-12T02:57:41;13.82;;;12.63;;
39864;SDS011;25538;48.392;9.976;2022-09-12T03:00:08;13.88;;;12.65;;
39864;SDS011;25538;48.392;9.976;2022-09-12T03:02:47;13.10;;;11.90;;
39864;SDS011;25538;48.392;9.976;2022-09-12T03:05:33;13.05;;;11.93;;
39864;SDS011;25538;48.392;9.976;2022-09-12T03:11:24;13.73;;;12.45;;
39864;SDS011;25538;48.392;9.976;2022-09-12T03:14:31;14.80;;;13.40;;
39864;SDS011;25538;48.392;9.976;2022-09-12T03:17:28;11.63;;;10.52;;
39864;SDS011;25538;48.392;9.976;2022-09-12T03:20:09;13.45;;;12.35;;
39864;SDS011;25538;48.392;9.976;2022-09-12T03:22:53;14.30;;;13.00;;
39864;SDS011;25538;48.392;9.976;2022-09-12T03:25:29;13.68;;;12.55;;
39864;SDS011;25538;48.392;9.976;2022-09-12T03:28:09;14.30;;;13.05;;
39864;SDS011;25538;48.392;9.976;2022-09-12T03:30:38;14.95;;;13.45;;
39864;SDS011;25538;48.392;9.976;2022-09-12T03:33:15;13.57;;;12.38;;
39864;SDS011;25538;48.392;9.976;2022-09-12T03:35:43;13.35;;;12.15;;
39864;SDS011;25538;48.392;9.976;2022-09-12T03:38:09;14.43;;;13.02;;
39864;SDS011;25538;48.392;9.976;2022-09-12T03:40:36;14.57;;;13.17;;
39864;SDS011;25538;48.392;9.976;2022-09-12T03:43:03;16.08;;;14.20;;
39864;SDS011;25538;48.392;9.976;2022-09-12T03:45:31;14.95;;;13.45;;
39864;SDS011;25538;48.392;9.976;2022-09-12T03:47:57;15.48;;;13.98;;
39864;SDS011;25538;48.392;9.976;2022-09-12T03:50:24;16.17;;;14.57;;
39864;SDS011;25538;48.392;9.976;2022-09-12T03:52:50;14.75;;;13.30;;
39864;SDS011;25538;48.392;9.976;2022-09-12T03:55:16;15.03;;;13.50;;
39864;SDS011;25538;48.392;9.976;2022-09-12T03:57:42;15.57;;;14.02;;
39864;SDS011;25538;48.392;9.976;2022-09-12T04:00:09;14.40;;;13.02;;
39864;SDS011;25538;48.392;9.976;2022-09-12T04:02:35;15.00;;;13.60;;
39864;SDS011;25538;48.392;9.976;2022-09-12T04:05:01;16.88;;;15.27;;
39864;SDS011;25538;48.392;9.976;2022-09-12T04:07:27;16.70;;;15.05;;
39864;SDS011;25538;48.392;9.976;2022-09-12T04:09:53;16.75;;;14.88;;
39864;SDS011;25538;48.392;9.976;2022-09-12T04:12:20;16.33;;;14.80;;
39864;SDS011;25538;48.392;9.976;2022-09-12T04:14:46;16.42;;;15.02;;
39864;SDS011;25538;48.392;9.976;2022-09-12T04:17:13;16.60;;;15.13;;
39864;SDS011;25538;48.392;9.976;2022-09-12T04:19:39;15.40;;;13.90;;
39864;SDS011;25538;48.392;9.976;2022-09-12T04:22:05;15.83;;;14.43;;
39864;SDS011;25538;48.392;9.976;2022-09-12T04:24:31;16.15;;;14.60;;
39864;SDS011;25538;48.392;9.976;2022-09-12T04:26:57;15.67;;;14.20;;
39864;SDS011;25538;48.392;9.976;2022-09-12T04:29:23;14.70;;;13.40;;
39864;SDS011;25538;48.392;9.976;2022-09-12T04:31:49;14.68;;;13.18;;
39864;SDS011;25538;48.392;9.976;2022-09-12T04:34:15;15.80;;;14.23;;
39864;SDS011;25538;48.392;9.976;2022-09-12T04:36:41;16.57;;;14.97;;
39864;SDS011;25538;48.392;9.976;2022-09-12T04:39:07;16.95;;;15.25;;
39864;SDS011;25538;48.392;9.976;2022-09-12T04:41:37;16.33;;;14.73;;
39864;SDS011;25538;48.392;9.976;2022-09-12T04:44:05;15.55;;;13.95;;
39864;SDS011;25538;48.392;9.976;2022-09-12T04:46:41;15.20;;;13.63;;
39864;SDS011;25538;48.392;9.976;2022-09-12T04:49:09;16.85;;;15.25;;
39864;SDS011;25538;48.392;9.976;2022-09-12T04:51:37;16.05;;;14.43;;
39864;SDS011;25538;48.392;9.976;2022-09-12T04:54:06;14.80;;;13.27;;
39864;SDS011;25538;48.392;9.976;2022-09-12T04:56:38;15.35;;;13.95;;
39864;SDS011;25538;48.392;9.976;2022-09-12T04:59:05;16.13;;;14.63;;
39864;SDS011;25538;48.392;9.976;2022-09-12T05:01:33;15.13;;;13.70;;
39864;SDS011;25538;48.392;9.976;2022-09-12T05:03:59;16.33;;;14.82;;
39864;SDS011;25538;48.392;9.976;2022-09-12T05:06:27;17.23;;;15.52;;
39864;SDS011;25538;48.392;9.976;2022-09-12T05:08:55;17.67;;;15.93;;
39864;SDS011;25538;48.392;9.976;2022-09-12T05:11:23;18.60;;;16.83;;
39864;SDS011;25538;48.392;9.976;2022-09-12T05:13:51;17.60;;;15.93;;
39864;SDS011;25538;48.392;9.976;2022-09-12T05:16:18;17.40;;;14.27;;
39864;SDS011;25538;48.392;9.976;2022-09-12T05:18:45;16.25;;;14.48;;
39864;SDS011;25538;48.392;9.976;2022-09-12T05:21:12;17.33;;;15.50;;
39864;SDS011;25538;48.392;9.976;2022-09-12T05:23:40;18.92;;;16.67;;
39864;SDS011;25538;48.392;9.976;2022-09-12T05:26:06;16.50;;;14.90;;
39864;SDS011;25538;48.392;9.976;2022-09-12T05:28:36;16.60;;;14.90;;
39864;SDS011;25538;48.392;9.976;2022-09-12T05:31:07;15.88;;;14.32;;
39864;SDS011;25538;48.392;9.976;2022-09-12T05:33:36;15.18;;;13.77;;
39864;SDS011;25538;48.392;9.976;2022-09-12T05:36:04;14.98;;;13.57;;
39864;SDS011;25538;48.392;9.976;2022-09-12T05:38:34;15.88;;;14.32;;
39864;SDS011;25538;48.392;9.976;2022-09-12T05:41:05;16.00;;;14.35;;
39864;SDS011;25538;48.392;9.976;2022-09-12T05:43:34;16.52;;;14.93;;
39864;SDS011;25538;48.392;9.976;2022-09-12T05:46:03;15.48;;;14.05;;
39864;SDS011;25538;48.392;9.976;2022-09-12T05:48:36;16.52;;;14.93;;
39864;SDS011;25538;48.392;9.976;2022-09-12T05:51:12;16.13;;;13.55;;
39864;SDS011;25538;48.392;9.976;2022-09-12T05:53:48;14.77;;;12.68;;
39864;SDS011;25538;48.392;9.976;2022-09-12T05:56:18;15.48;;;13.82;;
39864;SDS011;25538;48.392;9.976;2022-09-12T05:58:46;16.55;;;14.45;;
39864;SDS011;25538;48.392;9.976;2022-09-12T06:01:17;15.88;;;14.23;;
39864;SDS011;25538;48.392;9.976;2022-09-12T06:03:44;17.02;;;15.25;;
39864;SDS011;25538;48.392;9.976;2022-09-12T06:06:12;15.35;;;13.95;;
39864;SDS011;25538;48.392;9.976;2022-09-12T06:08:40;14.60;;;13.30;;
39864;SDS011;25538;48.392;9.976;2022-09-12T06:11:07;16.98;;;15.15;;
39864;SDS011;25538;48.392;9.976;2022-09-12T06:13:36;16.13;;;14.43;;
39864;SDS011;25538;48.392;9.976;2022-09-12T06:18:37;14.95;;;13.55;;
39864;SDS011;25538;48.392;9.976;2022-09-12T06:21:04;18.45;;;15.38;;
39864;SDS011;25538;48.392;9.976;2022-09-12T06:23:32;17.90;;;16.00;;
39864;SDS011;25538;48.392;9.976;2022-09-12T06:25:59;19.67;;;17.80;;
39864;SDS011;25538;48.392;9.976;2022-09-12T06:28:25;21.40;;;19.27;;
39864;SDS011;25538;48.392;9.976;2022-09-12T06:30:51;22.33;;;17.60;;
39864;SDS011;25538;48.392;9.976;2022-09-12T06:33:17;22.83;;;20.42;;
39864;SDS011;25538;48.392;9.976;2022-09-12T06:35:43;22.50;;;20.08;;
39864;SDS011;25538;48.392;9.976;2022-09-12T06:38:09;27.23;;;22.13;;
39864;SDS011;25538;48.392;9.976;2022-09-12T06:40:42;27.67;;;22.00;;
39864;SDS011;25538;48.392;9.976;2022-09-12T06:43:11;23.73;;;21.20;;
39864;SDS011;25538;48.392;9.976;2022-09-12T06:45:47;24.20;;;21.80;;
39864;SDS011;25538;48.392;9.976;2022-09-12T06:48:13;22.58;;;20.17;;
39864;SDS011;25538;48.392;9.976;2022-09-12T06:50:39;22.97;;;20.73;;
39864;SDS011;25538;48.392;9.976;2022-09-12T06:53:06;25.80;;;23.00;;
39864;SDS011;25538;48.392;9.976;2022-09-12T06:55:32;27.47;;;21.87;;
39864;SDS011;25538;48.392;9.976;2022-09-12T06:57:58;23.73;;;21.48;;
39864;SDS011;25538;48.392;9.976;2022-09-12T07:00:24;31.13;;;23.75;;
39864;SDS011;25538;48.392;9.976;2022-09-12T07:02:53;22.60;;;20.23;;
39864;SDS011;25538;48.392;9.976;2022-09-12T07:05:21;23.25;;;20.85;;
39864;SDS011;25538;48.392;9.976;2022-09-12T07:07:47;25.23;;;21.95;;
39864;SDS011;25538;48.392;9.976;2022-09-12T07:10:15;23.17;;;20.83;;
39864;SDS011;25538;48.392;9.976;2022-09-12T07:12:41;23.47;;;21.07;;
39864;SDS011;25538;48.392;9.976;2022-09-12T07:15:07;23.93;;;20.90;;
39864;SDS011;25538;48.392;9.976;2022-09-12T07:17:34;22.25;;;19.80;;
39864;SDS011;25538;48.392;9.976;2022-09-12T07:20:01;23.07;;;20.87;;
39864;SDS011;25538;48.392;9.976;2022-09-12T07:22:27;22.70;;;20.50;;
39864;SDS011;25538;48.392;9.976;2022-09-12T07:24:52;21.67;;;19.73;;
39864;SDS011;25538;48.392;9.976;2022-09-12T07:27:19;25.42;;;22.50;;
39864;SDS011;25538;48.392;9.976;2022-09-12T07:29:46;24.02;;;21.73;;
39864;SDS011;25538;48.392;9.976;2022-09-12T07:32:12;23.90;;;21.50;;
39864;SDS011;25538;48.392;9.976;2022-09-12T07:34:39;26.13;;;23.42;;
39864;SDS011;25538;48.392;9.976;2022-09-12T07:37:06;30.13;;;24.33;;
39864;SDS011;25538;48.392;9.976;2022-09-12T07:39:31;29.93;;;24.50;;
39864;SDS011;25538;48.392;9.976;2022-09-12T07:41:57;30.67;;;25.53;;
39864;SDS011;25538;48.392;9.976;2022-09-12T07:44:24;34.97;;;28.80;;
39864;SDS011;25538;48.392;9.976;2022-09-12T07:46:51;34.40;;;30.90;;
39864;SDS011;25538;48.392;9.976;2022-09-12T07:49:17;39.80;;;30.37;;
39864;SDS011;25538;48.392;9.976;2022-09-12T07:51:42;35.30;;;31.47;;
39864;SDS011;25538;48.392;9.976;2022-09-12T07:54:09;37.30;;;32.70;;
39864;SDS011;25538;48.392;9.976;2022-09-12T07:56:34;38.40;;;33.60;;
39864;SDS011;25538;48.392;9.976;2022-09-12T07:59:01;40.87;;;34.07;;
39864;SDS011;25538;48.392;9.976;2022-09-12T08:01:28;45.30;;;37.67;;
39864;SDS011;25538;48.392;9.976;2022-09-12T08:03:57;40.77;;;34.53;;
39864;SDS011;25538;48.392;9.976;2022-09-12T08:06:25;42.40;;;37.70;;
39864;SDS011;25538;48.392;9.976;2022-09-12T08:08:55;34.73;;;31.00;;
39864;SDS011;25538;48.392;9.976;2022-09-12T08:11:23;31.13;;;27.80;;
39864;SDS011;25538;48.392;9.976;2022-09-12T08:13:50;41.70;;;34.00;;
39864;SDS011;25538;48.392;9.976;2022-09-12T08:16:18;39.43;;;34.10;;
39864;SDS011;25538;48.392;9.976;2022-09-12T08:18:46;38.60;;;33.13;;
39864;SDS011;25538;48.392;9.976;2022-09-12T08:21:14;32.50;;;29.00;;
39864;SDS011;25538;48.392;9.976;2022-09-12T08:23:41;29.30;;;26.40;;
39864;SDS011;25538;48.392;9.976;2022-09-12T08:26:09;31.07;;;27.87;;
39864;SDS011;25538;48.392;9.976;2022-09-12T08:28:36;31.37;;;27.53;;
39864;SDS011;25538;48.392;9.976;2022-09-12T08:31:05;27.57;;;24.60;;
39864;SDS011;25538;48.392;9.976;2022-09-12T08:33:33;27.07;;;24.30;;
39864;SDS011;25538;48.392;9.976;2022-09-12T08:38:40;26.27;;;23.63;;
39864;SDS011;25538;48.392;9.976;2022-09-12T08:41:13;27.77;;;24.97;;
39864;SDS011;25538;48.392;9.976;2022-09-12T08:43:48;23.70;;;21.10;;
39864;SDS011;25538;48.392;9.976;2022-09-12T08:46:27;22.60;;;20.60;;
39864;SDS011;25538;48.392;9.976;2022-09-12T08:48:56;23.23;;;20.90;;
39864;SDS011;25538;48.392;9.976;2022-09-12T08:51:24;18.37;;;16.77;;
39864;SDS011;25538;48.392;9.976;2022-09-12T08:53:57;13.57;;;12.37;;
39864;SDS011;25538;48.392;9.976;2022-09-12T08:56:25;11.80;;;10.90;;
39864;SDS011;25538;48.392;9.976;2022-09-12T08:58:53;8.93;;;8.23;;
39864;SDS011;25538;48.392;9.976;2022-09-12T09:01:25;9.60;;;8.90;;
39864;SDS011;25538;48.392;9.976;2022-09-12T09:10:09;12.53;;;11.73;;
39864;SDS011;25538;48.392;9.976;2022-09-12T09:18:14;15.23;;;14.13;;
39864;SDS011;25538;48.392;9.976;2022-09-12T09:25:57;11.83;;;11.13;;
39864;SDS011;25538;48.392;9.976;2022-09-12T09:28:37;11.40;;;10.60;;
39864;SDS011;25538;48.392;9.976;2022-09-12T09:31:17;8.37;;;7.87;;
39864;SDS011;25538;48.392;9.976;2022-09-12T09:33:48;5.50;;;5.20;;
39864;SDS011;25538;48.392;9.976;2022-09-12T09:39:00;3.83;;;3.67;;
39864;SDS011;25538;48.392;9.976;2022-09-12T09:43:58;3.40;;;3.20;;
39864;SDS011;25538;48.392;9.976;2022-09-12T09:46:25;4.70;;;4.40;;
39864;SDS011;25538;48.392;9.976;2022-09-12T09:48:52;4.13;;;3.93;;
39864;SDS011;25538;48.392;9.976;2022-09-12T09:51:22;2.87;;;2.77;;
39864;SDS011;25538;48.392;9.976;2022-09-12T09:53:52;4.70;;;4.40;;
39864;SDS011;25538;48.392;9.976;2022-09-12T09:56:26;3.50;;;3.20;;
39864;SDS011;25538;48.392;9.976;2022-09-12T09:58:54;3.10;;;2.90;;
39864;SDS011;25538;48.392;9.976;2022-09-12T10:01:21;1.90;;;1.80;;
39864;SDS011;25538;48.392;9.976;2022-09-12T10:03:51;2.10;;;2.00;;
39864;SDS011;25538;48.392;9.976;2022-09-12T10:08:45;2.37;;;2.27;;
39864;SDS011;25538;48.392;9.976;2022-09-12T10:11:19;2.53;;;2.43;;
39864;SDS011;25538;48.392;9.976;2022-09-12T10:18:58;3.37;;;3.07;;
39864;SDS011;25538;48.392;9.976;2022-09-12T10:24:05;2.80;;;2.60;;
39864;SDS011;25538;48.392;9.976;2022-09-12T10:26:37;2.70;;;2.50;;
39864;SDS011;25538;48.392;9.976;2022-09-12T10:29:15;2.07;;;1.97;;
39864;SDS011;25538;48.392;9.976;2022-09-12T10:31:48;2.23;;;2.10;;
39864;SDS011;25538;48.392;9.976;2022-09-12T10:34:38;1.80;;;1.70;;
39864;SDS011;25538;48.392;9.976;2022-09-12T10:37:09;2.40;;;1.90;;
39864;SDS011;25538;48.392;9.976;2022-09-12T10:39:48;1.73;;;1.63;;
39864;SDS011;25538;48.392;9.976;2022-09-12T10:45:17;1.90;;;1.80;;
39864;SDS011;25538;48.392;9.976;2022-09-12T10:47:49;1.97;;;1.87;;
39864;SDS011;25538;48.392;9.976;2022-09-12T10:50:21;2.13;;;2.03;;
39864;SDS011;25538;48.392;9.976;2022-09-12T10:52:51;1.73;;;1.63;;
39864;SDS011;25538;48.392;9.976;2022-09-12T10:55:37;1.80;;;1.70;;
39864;SDS011;25538;48.392;9.976;2022-09-12T10:58:14;1.67;;;1.50;;
39864;SDS011;25538;48.392;9.976;2022-09-12T11:01:08;1.93;;;1.80;;
39864;SDS011;25538;48.392;9.976;2022-09-12T11:09:44;1.70;;;1.60;;
39864;SDS011;25538;48.392;9.976;2022-09-12T11:12:34;1.73;;;1.73;;
39864;SDS011;25538;48.392;9.976;2022-09-12T11:23:32;2.03;;;1.93;;
39864;SDS011;25538;48.392;9.976;2022-09-12T11:26:12;2.05;;;1.95;;
39864;SDS011;25538;48.392;9.976;2022-09-12T11:29:12;1.63;;;1.58;;
39864;SDS011;25538;48.392;9.976;2022-09-12T11:34:36;2.17;;;2.07;;
39864;SDS011;25538;48.392;9.976;2022-09-12T11:39:55;1.63;;;1.53;;
39864;SDS011;25538;48.392;9.976;2022-09-12T11:42:32;1.67;;;1.40;;
39864;SDS011;25538;48.392;9.976;2022-09-12T11:45:14;1.97;;;1.87;;
39864;SDS011;25538;48.392;9.976;2022-09-12T11:47:45;1.97;;;1.87;;
39864;SDS011;25538;48.392;9.976;2022-09-12T11:50:24;2.10;;;2.00;;
39864;SDS011;25538;48.392;9.976;2022-09-12T11:52:54;2.13;;;2.00;;
39864;SDS011;25538;48.392;9.976;2022-09-12T11:55:28;2.20;;;2.10;;
39864;SDS011;25538;48.392;9.976;2022-09-12T11:58:02;1.60;;;1.50;;
39864;SDS011;25538;48.392;9.976;2022-09-12T12:05:50;1.90;;;1.70;;
39864;SDS011;25538;48.392;9.976;2022-09-12T12:08:28;2.17;;;2.07;;
39864;SDS011;25538;48.392;9.976;2022-09-12T12:10:56;2.27;;;2.17;;
39864;SDS011;25538;48.392;9.976;2022-09-12T12:13:31;2.30;;;2.20;;
39864;SDS011;25538;48.392;9.976;2022-09-12T12:18:45;3.30;;;2.40;;
39864;SDS011;25538;48.392;9.976;2022-09-12T12:34:33;2.13;;;1.93;;
39864;SDS011;25538;48.392;9.976;2022-09-12T12:42:55;2.50;;;2.30;;
39864;SDS011;25538;48.392;9.976;2022-09-12T12:47:43;2.10;;;2.00;;
39864;SDS011;25538;48.392;9.976;2022-09-12T12:57:54;2.50;;;2.10;;
39864;SDS011;25538;48.392;9.976;2022-09-12T13:02:59;2.50;;;2.30;;
39864;SDS011;25538;48.392;9.976;2022-09-12T13:05:40;2.20;;;2.10;;
39864;SDS011;25538;48.392;9.976;2022-09-12T13:10:49;1.63;;;1.63;;
39864;SDS011;25538;48.392;9.976;2022-09-12T13:13:21;1.70;;;1.60;;
39864;SDS011;25538;48.392;9.976;2022-09-12T13:16:02;1.77;;;1.67;;
39864;SDS011;25538;48.392;9.976;2022-09-12T13:18:32;1.70;;;1.60;;
39864;SDS011;25538;48.392;9.976;2022-09-12T13:21:13;1.40;;;1.40;;
39864;SDS011;25538;48.392;9.976;2022-09-12T13:23:45;2.50;;;1.50;;
39864;SDS011;25538;48.392;9.976;2022-09-12T13:26:41;1.40;;;1.30;;
39864;SDS011;25538;48.392;9.976;2022-09-12T13:29:14;1.70;;;1.53;;
39864;SDS011;25538;48.392;9.976;2022-09-12T13:31:40;2.13;;;1.30;;
39864;SDS011;25538;48.392;9.976;2022-09-12T13:34:07;1.30;;;1.20;;
39864;SDS011;25538;48.392;9.976;2022-09-12T13:42:01;1.50;;;1.20;;
39864;SDS011;25538;48.392;9.976;2022-09-12T13:44:28;1.60;;;1.50;;
39864;SDS011;25538;48.392;9.976;2022-09-12T13:46:57;1.43;;;1.33;;
39864;SDS011;25538;48.392;9.976;2022-09-12T13:49:32;1.67;;;1.57;;
39864;SDS011;25538;48.392;9.976;2022-09-12T13:52:08;1.10;;;1.10;;
39864;SDS011;25538;48.392;9.976;2022-09-12T13:54:45;1.13;;;1.00;;
39864;SDS011;25538;48.392;9.976;2022-09-12T13:57:29;1.70;;;1.67;;
39864;SDS011;25538;48.392;9.976;2022-09-12T14:00:15;2.93;;;1.60;;
39864;SDS011;25538;48.392;9.976;2022-09-12T14:02:47;2.10;;;1.50;;
39864;SDS011;25538;48.392;9.976;2022-09-12T14:05:19;1.70;;;1.63;;
39864;SDS011;25538;48.392;9.976;2022-09-12T14:12:54;1.23;;;1.10;;
39864;SDS011;25538;48.392;9.976;2022-09-12T14:15:26;1.70;;;1.57;;
39864;SDS011;25538;48.392;9.976;2022-09-12T14:18:01;1.37;;;1.37;;
39864;SDS011;25538;48.392;9.976;2022-09-12T14:20:29;1.57;;;1.47;;
39864;SDS011;25538;48.392;9.976;2022-09-12T14:23:04;1.73;;;1.63;;
39864;SDS011;25538;48.392;9.976;2022-09-12T14:25:42;2.40;;;1.30;;
39864;SDS011;25538;48.392;9.976;2022-09-12T14:28:12;1.40;;;1.30;;
39864;SDS011;25538;48.392;9.976;2022-09-12T14:30:55;2.67;;;2.57;;
39864;SDS011;25538;48.392;9.976;2022-09-12T14:33:23;1.43;;;1.33;;
39864;SDS011;25538;48.392;9.976;2022-09-12T14:35:50;1.40;;;1.30;;
39864;SDS011;25538;48.392;9.976;2022-09-12T14:38:33;1.40;;;1.30;;
39864;SDS011;25538;48.392;9.976;2022-09-12T14:41:10;1.73;;;1.63;;
39864;SDS011;25538;48.392;9.976;2022-09-12T14:43:42;1.60;;;1.50;;
39864;SDS011;25538;48.392;9.976;2022-09-12T14:49:01;1.40;;;1.30;;
39864;SDS011;25538;48.392;9.976;2022-09-12T14:51:32;1.10;;;1.10;;
39864;SDS011;25538;48.392;9.976;2022-09-12T14:54:01;1.60;;;1.50;;
39864;SDS011;25538;48.392;9.976;2022-09-12T14:56:43;1.40;;;1.27;;
39864;SDS011;25538;48.392;9.976;2022-09-12T15:05:22;1.30;;;1.30;;
39864;SDS011;25538;48.392;9.976;2022-09-12T15:12:50;1.20;;;1.20;;
39864;SDS011;25538;48.392;9.976;2022-09-12T15:18:10;1.17;;;1.17;;
39864;SDS011;25538;48.392;9.976;2022-09-12T15:20:38;1.40;;;1.40;;
39864;SDS011;25538;48.392;9.976;2022-09-12T15:23:08;1.60;;;1.50;;
39864;SDS011;25538;48.392;9.976;2022-09-12T15:25:55;1.10;;;1.10;;
39864;SDS011;25538;48.392;9.976;2022-09-12T15:28:22;1.40;;;1.30;;
39864;SDS011;25538;48.392;9.976;2022-09-12T15:30:49;2.60;;;2.50;;
39864;SDS011;25538;48.392;9.976;2022-09-12T15:33:17;2.10;;;1.50;;
39864;SDS011;25538;48.392;9.976;2022-09-12T15:35:45;1.43;;;1.30;;
39864;SDS011;25538;48.392;9.976;2022-09-12T15:38:11;1.83;;;1.70;;
39864;SDS011;25538;48.392;9.976;2022-09-12T15:40:37;1.60;;;1.50;;
39864;SDS011;25538;48.392;9.976;2022-09-12T15:43:03;1.57;;;1.47;;
39864;SDS011;25538;48.392;9.976;2022-09-12T15:45:30;1.67;;;1.57;;
39864;SDS011;25538;48.392;9.976;2022-09-12T15:47:58;1.47;;;1.47;;
39864;SDS011;25538;48.392;9.976;2022-09-12T15:50:24;1.40;;;1.40;;
39864;SDS011;25538;48.392;9.976;2022-09-12T15:52:52;1.93;;;1.83;;
39864;SDS011;25538;48.392;9.976;2022-09-12T15:55:20;1.23;;;1.23;;
39864;SDS011;25538;48.392;9.976;2022-09-12T15:57:52;1.60;;;1.50;;
39864;SDS011;25538;48.392;9.976;2022-09-12T16:00:18;2.17;;;2.07;;
39864;SDS011;25538;48.392;9.976;2022-09-12T16:02:45;1.67;;;1.60;;
39864;SDS011;25538;48.392;9.976;2022-09-12T16:05:20;2.00;;;1.57;;
39864;SDS011;25538;48.392;9.976;2022-09-12T16:07:50;2.20;;;2.10;;
39864;SDS011;25538;48.392;9.976;2022-09-12T16:10:21;1.53;;;1.53;;
39864;SDS011;25538;48.392;9.976;2022-09-12T16:12:49;1.93;;;1.80;;
39864;SDS011;25538;48.392;9.976;2022-09-12T16:15:19;1.97;;;1.83;;
39864;SDS011;25538;48.392;9.976;2022-09-12T16:17:47;1.93;;;1.83;;
39864;SDS011;25538;48.392;9.976;2022-09-12T16:20:13;2.00;;;1.90;;
39864;SDS011;25538;48.392;9.976;2022-09-12T16:22:48;2.10;;;2.00;;
39864;SDS011;25538;48.392;9.976;2022-09-12T16:25:14;2.40;;;2.20;;
39864;SDS011;25538;48.392;9.976;2022-09-12T16:27:40;1.60;;;1.50;;
39864;SDS011;25538;48.392;9.976;2022-09-12T16:30:06;2.57;;;2.47;;
39864;SDS011;25538;48.392;9.976;2022-09-12T16:32:33;2.50;;;2.40;;
39864;SDS011;25538;48.392;9.976;2022-09-12T16:34:58;1.80;;;1.70;;
39864;SDS011;25538;48.392;9.976;2022-09-12T16:37:25;2.20;;;2.10;;
39864;SDS011;25538;48.392;9.976;2022-09-12T16:39:51;2.23;;;2.07;;
39864;SDS011;25538;48.392;9.976;2022-09-12T16:42:17;2.50;;;2.40;;
39864;SDS011;25538;48.392;9.976;2022-09-12T16:44:45;2.20;;;2.00;;
39864;SDS011;25538;48.392;9.976;2022-09-12T16:47:11;2.63;;;2.43;;
39864;SDS011;25538;48.392;9.976;2022-09-12T16:49:37;2.47;;;2.37;;
39864;SDS011;25538;48.392;9.976;2022-09-12T16:52:03;2.67;;;2.57;;
39864;SDS011;25538;48.392;9.976;2022-09-12T16:54:30;2.40;;;2.30;;
39864;SDS011;25538;48.392;9.976;2022-09-12T16:56:56;2.47;;;2.37;;
39864;SDS011;25538;48.392;9.976;2022-09-12T16:59:22;2.00;;;1.90;;
39864;SDS011;25538;48.392;9.976;2022-09-12T17:01:48;2.10;;;1.90;;
39864;SDS011;25538;48.392;9.976;2022-09-12T17:04:14;2.20;;;2.10;;
39864;SDS011;25538;48.392;9.976;2022-09-12T17:06:40;2.20;;;2.10;;
39864;SDS011;25538;48.392;9.976;2022-09-12T17:09:07;2.93;;;2.73;;
39864;SDS011;25538;48.392;9.976;2022-09-12T17:11:36;3.90;;;2.80;;
39864;SDS011;25538;48.392;9.976;2022-09-12T17:14:04;2.40;;;2.30;;
39864;SDS011;25538;48.392;9.976;2022-09-12T17:16:32;2.20;;;2.10;;
39864;SDS011;25538;48.392;9.976;2022-09-12T17:18:59;2.73;;;2.53;;
39864;SDS011;25538;48.392;9.976;2022-09-12T17:21:25;5.83;;;5.33;;
39864;SDS011;25538;48.392;9.976;2022-09-12T17:23:51;3.53;;;3.23;;
39864;SDS011;25538;48.392;9.976;2022-09-12T17:26:17;2.80;;;2.70;;
39864;SDS011;25538;48.392;9.976;2022-09-12T17:28:43;3.17;;;2.63;;
39864;SDS011;25538;48.392;9.976;2022-09-12T17:31:10;3.00;;;2.80;;
39864;SDS011;25538;48.392;9.976;2022-09-12T17:33:37;3.27;;;3.07;;
39864;SDS011;25538;48.392;9.976;2022-09-12T17:36:05;2.80;;;2.60;;